sensor_id;sensor_type;location;lat;lon;timestamp;temperature;humidity
52058;DHT22;38063;53.210;6.504;2023-04-24T00:00:04;10.90;99.90
52058;DHT22;38063;53.210;6.504;2023-04-24T00:02:37;10.90;99.90
52058;DHT22;38063;53.210;6.504;2023-04-24T00:05:07;10.90;99.90
52058;DHT22;38063;53.210;6.504;2023-04-24T00:07:36;10.80;99.90
52058;DHT22;38063;53.210;6.504;2023-04-24T00:10:02;10.80;99.90
52058;DHT22;38063;53.210;6.504;2023-04-24T00:12:27;10.80;99.90
52058;DHT22;38063;53.210;6.504;2023-04-24T00:14:53;10.80;99.90
52058;DHT22;38063;53.210;6.504;2023-04-24T00:17:19;10.70;99.90
52058;DHT22;38063;53.210;6.504;2023-04-24T00:19:48;10.70;99.90
52058;DHT22;38063;53.210;6.504;2023-04-24T00:22:13;10.80;99.90
52058;DHT22;38063;53.210;6.504;2023-04-24T00:24:40;10.80;99.90
52058;DHT22;38063;53.210;6.504;2023-04-24T00:27:06;10.70;99.90
52058;DHT22;38063;53.210;6.504;2023-04-24T00:29:31;10.70;99.90
52058;DHT22;38063;53.210;6.504;2023-04-24T00:31:57;10.70;99.90
52058;DHT22;38063;53.210;6.504;2023-04-24T00:34:23;10.70;99.90
52058;DHT22;38063;53.210;6.504;2023-04-24T00:36:48;10.70;99.90
52058;DHT22;38063;53.210;6.504;2023-04-24T00:39:18;10.60;99.90
52058;DHT22;38063;53.210;6.504;2023-04-24T00:41:44;10.60;99.90
52058;DHT22;38063;53.210;6.504;2023-04-24T00:44:11;10.60;99.90
52058;DHT22;38063;53.210;6.504;2023-04-24T00:46:36;10.60;99.90
52058;DHT22;38063;53.210;6.504;2023-04-24T00:49:03;10.60;99.90
52058;DHT22;38063;53.210;6.504;2023-04-24T00:51:29;10.60;99.90
52058;DHT22;38063;53.210;6.504;2023-04-24T00:53:56;10.60;99.90
52058;DHT22;38063;53.210;6.504;2023-04-24T00:56:22;10.50;99.90
52058;DHT22;38063;53.210;6.504;2023-04-24T00:58:49;10.50;99.90
52058;DHT22;38063;53.210;6.504;2023-04-24T01:01:15;10.60;99.90
52058;DHT22;38063;53.210;6.504;2023-04-24T01:03:41;10.50;99.90
52058;DHT22;38063;53.210;6.504;2023-04-24T01:06:06;10.40;99.90
52058;DHT22;38063;53.210;6.504;2023-04-24T01:08:33;10.40;99.90
52058;DHT22;38063;53.210;6.504;2023-04-24T01:11:00;10.60;99.90
52058;DHT22;38063;53.210;6.504;2023-04-24T01:13:28;10.40;99.90
52058;DHT22;38063;53.210;6.504;2023-04-24T01:15:54;10.40;99.90
52058;DHT22;38063;53.210;6.504;2023-04-24T01:18:20;10.30;99.90
52058;DHT22;38063;53.210;6.504;2023-04-24T01:20:49;10.30;99.90
52058;DHT22;38063;53.210;6.504;2023-04-24T01:23:15;10.30;99.90
52058;DHT22;38063;53.210;6.504;2023-04-24T01:25:41;10.30;99.90
52058;DHT22;38063;53.210;6.504;2023-04-24T01:28:08;10.30;99.90
52058;DHT22;38063;53.210;6.504;2023-04-24T01:30:33;10.30;99.90
52058;DHT22;38063;53.210;6.504;2023-04-24T01:32:59;10.20;99.90
52058;DHT22;38063;53.210;6.504;2023-04-24T01:35:26;10.20;99.90
52058;DHT22;38063;53.210;6.504;2023-04-24T01:37:52;10.20;99.90
52058;DHT22;38063;53.210;6.504;2023-04-24T01:40:17;10.20;99.90
52058;DHT22;38063;53.210;6.504;2023-04-24T01:42:44;10.30;99.90
52058;DHT22;38063;53.210;6.504;2023-04-24T01:45:11;10.20;99.90
52058;DHT22;38063;53.210;6.504;2023-04-24T01:47:38;10.20;99.90
52058;DHT22;38063;53.210;6.504;2023-04-24T01:50:05;10.20;99.90
52058;DHT22;38063;53.210;6.504;2023-04-24T01:52:31;10.10;99.90
52058;DHT22;38063;53.210;6.504;2023-04-24T01:55:02;10.10;99.90
52058;DHT22;38063;53.210;6.504;2023-04-24T01:57:28;10.10;99.90
52058;DHT22;38063;53.210;6.504;2023-04-24T01:59:55;10.10;99.90
52058;DHT22;38063;53.210;6.504;2023-04-24T02:02:21;10.00;99.90
52058;DHT22;38063;53.210;6.504;2023-04-24T02:04:52;10.10;99.90
52058;DHT22;38063;53.210;6.504;2023-04-24T02:07:17;10.00;99.90
52058;DHT22;38063;53.210;6.504;2023-04-24T02:09:43;10.10;99.90
52058;DHT22;38063;53.210;6.504;2023-04-24T02:12:09;10.00;99.90
52058;DHT22;38063;53.210;6.504;2023-04-24T02:14:35;10.00;99.90
52058;DHT22;38063;53.210;6.504;2023-04-24T02:17:00;10.00;99.90
52058;DHT22;38063;53.210;6.504;2023-04-24T02:19:26;10.00;99.90
52058;DHT22;38063;53.210;6.504;2023-04-24T02:21:52;10.00;99.90
52058;DHT22;38063;53.210;6.504;2023-04-24T02:24:17;10.20;99.90
52058;DHT22;38063;53.210;6.504;2023-04-24T02:26:43;9.90;99.90
52058;DHT22;38063;53.210;6.504;2023-04-24T02:29:09;9.90;99.90
52058;DHT22;38063;53.210;6.504;2023-04-24T02:31:34;9.90;99.90
52058;DHT22;38063;53.210;6.504;2023-04-24T02:34:00;9.90;99.90
52058;DHT22;38063;53.210;6.504;2023-04-24T02:36:26;9.90;99.90
52058;DHT22;38063;53.210;6.504;2023-04-24T02:38:51;9.90;99.90
52058;DHT22;38063;53.210;6.504;2023-04-24T02:41:17;9.90;99.90
52058;DHT22;38063;53.210;6.504;2023-04-24T02:43:43;9.90;99.90
52058;DHT22;38063;53.210;6.504;2023-04-24T02:46:08;9.90;99.90
52058;DHT22;38063;53.210;6.504;2023-04-24T02:48:34;9.80;99.90
52058;DHT22;38063;53.210;6.504;2023-04-24T02:51:00;9.90;99.90
52058;DHT22;38063;53.210;6.504;2023-04-24T02:53:25;10.00;99.90
52058;DHT22;38063;53.210;6.504;2023-04-24T02:55:51;9.90;99.90
52058;DHT22;38063;53.210;6.504;2023-04-24T02:58:17;9.90;99.90
52058;DHT22;38063;53.210;6.504;2023-04-24T03:00:45;9.90;99.90
52058;DHT22;38063;53.210;6.504;2023-04-24T03:03:11;9.90;99.90
52058;DHT22;38063;53.210;6.504;2023-04-24T03:05:37;9.90;99.90
52058;DHT22;38063;53.210;6.504;2023-04-24T03:08:03;9.90;99.90
52058;DHT22;38063;53.210;6.504;2023-04-24T03:10:28;9.90;99.90
52058;DHT22;38063;53.210;6.504;2023-04-24T03:12:54;9.90;99.90
52058;DHT22;38063;53.210;6.504;2023-04-24T03:15:20;10.00;99.90
52058;DHT22;38063;53.210;6.504;2023-04-24T03:17:46;9.90;99.90
52058;DHT22;38063;53.210;6.504;2023-04-24T03:20:11;9.90;99.90
52058;DHT22;38063;53.210;6.504;2023-04-24T03:22:37;9.90;99.90
52058;DHT22;38063;53.210;6.504;2023-04-24T03:25:03;9.90;99.90
52058;DHT22;38063;53.210;6.504;2023-04-24T03:27:29;9.90;99.90
52058;DHT22;38063;53.210;6.504;2023-04-24T03:29:56;9.90;99.90
52058;DHT22;38063;53.210;6.504;2023-04-24T03:32:22;9.90;99.90
52058;DHT22;38063;53.210;6.504;2023-04-24T03:34:48;10.00;99.90
52058;DHT22;38063;53.210;6.504;2023-04-24T03:37:17;10.00;99.90
52058;DHT22;38063;53.210;6.504;2023-04-24T03:39:43;10.00;99.90
52058;DHT22;38063;53.210;6.504;2023-04-24T03:42:09;10.10;99.90
52058;DHT22;38063;53.210;6.504;2023-04-24T03:44:35;10.00;99.90
52058;DHT22;38063;53.210;6.504;2023-04-24T03:47:01;10.20;99.90
52058;DHT22;38063;53.210;6.504;2023-04-24T03:49:26;10.00;99.90
52058;DHT22;38063;53.210;6.504;2023-04-24T03:51:52;10.00;99.90
52058;DHT22;38063;53.210;6.504;2023-04-24T03:54:19;10.00;99.90
52058;DHT22;38063;53.210;6.504;2023-04-24T03:56:45;10.00;99.90
52058;DHT22;38063;53.210;6.504;2023-04-24T03:59:10;10.00;99.90
52058;DHT22;38063;53.210;6.504;2023-04-24T04:01:36;10.10;99.90
52058;DHT22;38063;53.210;6.504;2023-04-24T04:04:06;10.00;99.90
52058;DHT22;38063;53.210;6.504;2023-04-24T04:06:32;10.00;99.90
52058;DHT22;38063;53.210;6.504;2023-04-24T04:08:58;9.90;99.90
52058;DHT22;38063;53.210;6.504;2023-04-24T04:11:24;9.90;99.90
52058;DHT22;38063;53.210;6.504;2023-04-24T04:13:50;9.90;99.90
52058;DHT22;38063;53.210;6.504;2023-04-24T04:16:16;10.00;99.90
52058;DHT22;38063;53.210;6.504;2023-04-24T04:18:43;9.90;99.90
52058;DHT22;38063;53.210;6.504;2023-04-24T04:21:10;9.90;99.90
52058;DHT22;38063;53.210;6.504;2023-04-24T04:23:35;10.00;99.90
52058;DHT22;38063;53.210;6.504;2023-04-24T04:26:01;9.90;99.90
52058;DHT22;38063;53.210;6.504;2023-04-24T04:28:28;9.90;99.90
52058;DHT22;38063;53.210;6.504;2023-04-24T04:30:56;9.90;99.90
52058;DHT22;38063;53.210;6.504;2023-04-24T04:33:23;10.00;99.90
52058;DHT22;38063;53.210;6.504;2023-04-24T04:35:49;9.90;99.90
52058;DHT22;38063;53.210;6.504;2023-04-24T04:38:17;9.90;99.90
52058;DHT22;38063;53.210;6.504;2023-04-24T04:40:44;9.90;99.90
52058;DHT22;38063;53.210;6.504;2023-04-24T04:43:10;9.90;99.90
52058;DHT22;38063;53.210;6.504;2023-04-24T04:45:37;9.90;99.90
52058;DHT22;38063;53.210;6.504;2023-04-24T04:48:04;9.90;99.90
52058;DHT22;38063;53.210;6.504;2023-04-24T04:50:31;9.90;99.90
52058;DHT22;38063;53.210;6.504;2023-04-24T04:52:57;10.10;99.90
52058;DHT22;38063;53.210;6.504;2023-04-24T04:55:22;9.80;99.90
52058;DHT22;38063;53.210;6.504;2023-04-24T04:57:48;10.00;99.90
52058;DHT22;38063;53.210;6.504;2023-04-24T05:00:14;9.90;99.90
52058;DHT22;38063;53.210;6.504;2023-04-24T05:02:40;9.90;99.90
52058;DHT22;38063;53.210;6.504;2023-04-24T05:05:06;9.90;99.90
52058;DHT22;38063;53.210;6.504;2023-04-24T05:07:32;9.90;99.90
52058;DHT22;38063;53.210;6.504;2023-04-24T05:09:58;9.90;99.90
52058;DHT22;38063;53.210;6.504;2023-04-24T05:12:24;9.90;99.90
52058;DHT22;38063;53.210;6.504;2023-04-24T05:14:49;9.90;99.90
52058;DHT22;38063;53.210;6.504;2023-04-24T05:17:15;10.10;99.90
52058;DHT22;38063;53.210;6.504;2023-04-24T05:19:41;10.00;99.90
52058;DHT22;38063;53.210;6.504;2023-04-24T05:22:07;9.90;99.90
52058;DHT22;38063;53.210;6.504;2023-04-24T05:24:34;9.90;99.90
52058;DHT22;38063;53.210;6.504;2023-04-24T05:26:59;10.00;99.90
52058;DHT22;38063;53.210;6.504;2023-04-24T05:29:25;9.90;99.90
52058;DHT22;38063;53.210;6.504;2023-04-24T05:31:52;9.90;99.90
52058;DHT22;38063;53.210;6.504;2023-04-24T05:34:17;9.90;99.90
52058;DHT22;38063;53.210;6.504;2023-04-24T05:36:43;10.00;99.90
52058;DHT22;38063;53.210;6.504;2023-04-24T05:39:09;10.40;99.90
52058;DHT22;38063;53.210;6.504;2023-04-24T05:41:35;9.80;99.90
52058;DHT22;38063;53.210;6.504;2023-04-24T05:44:00;9.80;99.90
52058;DHT22;38063;53.210;6.504;2023-04-24T05:46:26;9.80;99.90
52058;DHT22;38063;53.210;6.504;2023-04-24T05:48:52;9.80;99.90
52058;DHT22;38063;53.210;6.504;2023-04-24T05:51:17;9.80;99.90
52058;DHT22;38063;53.210;6.504;2023-04-24T05:53:43;9.80;99.90
52058;DHT22;38063;53.210;6.504;2023-04-24T05:56:09;9.70;99.90
52058;DHT22;38063;53.210;6.504;2023-04-24T05:58:34;9.70;99.90
52058;DHT22;38063;53.210;6.504;2023-04-24T06:01:00;9.60;99.90
52058;DHT22;38063;53.210;6.504;2023-04-24T06:03:27;9.70;99.90
52058;DHT22;38063;53.210;6.504;2023-04-24T06:05:53;9.60;99.90
52058;DHT22;38063;53.210;6.504;2023-04-24T06:08:19;9.60;99.90
52058;DHT22;38063;53.210;6.504;2023-04-24T06:10:45;9.60;99.90
52058;DHT22;38063;53.210;6.504;2023-04-24T06:13:10;9.60;99.90
52058;DHT22;38063;53.210;6.504;2023-04-24T06:15:36;9.90;99.90
52058;DHT22;38063;53.210;6.504;2023-04-24T06:18:03;9.60;99.90
52058;DHT22;38063;53.210;6.504;2023-04-24T06:20:28;9.60;99.90
52058;DHT22;38063;53.210;6.504;2023-04-24T06:22:54;9.60;99.90
52058;DHT22;38063;53.210;6.504;2023-04-24T06:25:20;9.70;99.90
52058;DHT22;38063;53.210;6.504;2023-04-24T06:27:46;9.60;99.90
52058;DHT22;38063;53.210;6.504;2023-04-24T06:30:12;9.60;99.90
52058;DHT22;38063;53.210;6.504;2023-04-24T06:32:38;9.70;99.90
52058;DHT22;38063;53.210;6.504;2023-04-24T06:35:04;9.70;99.90
52058;DHT22;38063;53.210;6.504;2023-04-24T06:37:30;9.70;99.90
52058;DHT22;38063;53.210;6.504;2023-04-24T06:39:55;9.70;99.90
52058;DHT22;38063;53.210;6.504;2023-04-24T06:42:21;9.70;99.90
52058;DHT22;38063;53.210;6.504;2023-04-24T06:44:47;9.70;99.90
52058;DHT22;38063;53.210;6.504;2023-04-24T06:47:13;9.70;99.90
52058;DHT22;38063;53.210;6.504;2023-04-24T06:49:42;9.70;99.90
52058;DHT22;38063;53.210;6.504;2023-04-24T06:52:08;9.70;99.90
52058;DHT22;38063;53.210;6.504;2023-04-24T06:54:33;9.70;99.90
52058;DHT22;38063;53.210;6.504;2023-04-24T06:56:59;9.70;99.90
52058;DHT22;38063;53.210;6.504;2023-04-24T06:59:28;9.70;99.90
52058;DHT22;38063;53.210;6.504;2023-04-24T07:01:55;9.70;99.90
52058;DHT22;38063;53.210;6.504;2023-04-24T07:04:21;9.70;99.90
52058;DHT22;38063;53.210;6.504;2023-04-24T07:06:47;9.70;99.90
52058;DHT22;38063;53.210;6.504;2023-04-24T07:09:13;9.70;99.90
52058;DHT22;38063;53.210;6.504;2023-04-24T07:11:39;9.70;99.90
52058;DHT22;38063;53.210;6.504;2023-04-24T07:14:06;9.80;99.90
52058;DHT22;38063;53.210;6.504;2023-04-24T07:16:32;9.80;99.90
52058;DHT22;38063;53.210;6.504;2023-04-24T07:18:58;9.80;99.90
52058;DHT22;38063;53.210;6.504;2023-04-24T07:21:23;9.80;99.90
52058;DHT22;38063;53.210;6.504;2023-04-24T07:23:50;10.00;99.90
52058;DHT22;38063;53.210;6.504;2023-04-24T07:26:15;9.70;99.90
52058;DHT22;38063;53.210;6.504;2023-04-24T07:28:41;9.30;99.90
52058;DHT22;38063;53.210;6.504;2023-04-24T07:31:08;9.70;99.90
52058;DHT22;38063;53.210;6.504;2023-04-24T07:33:33;9.60;99.90
52058;DHT22;38063;53.210;6.504;2023-04-24T07:35:59;9.60;99.90
52058;DHT22;38063;53.210;6.504;2023-04-24T07:38:25;9.60;99.90
52058;DHT22;38063;53.210;6.504;2023-04-24T07:40:51;9.60;99.90
52058;DHT22;38063;53.210;6.504;2023-04-24T07:43:17;10.10;99.90
52058;DHT22;38063;53.210;6.504;2023-04-24T07:45:43;9.50;99.90
52058;DHT22;38063;53.210;6.504;2023-04-24T07:48:09;9.50;99.90
52058;DHT22;38063;53.210;6.504;2023-04-24T07:50:35;9.70;99.90
52058;DHT22;38063;53.210;6.504;2023-04-24T07:53:02;9.50;99.90
52058;DHT22;38063;53.210;6.504;2023-04-24T07:55:28;9.70;99.90
52058;DHT22;38063;53.210;6.504;2023-04-24T07:57:53;9.40;99.90
52058;DHT22;38063;53.210;6.504;2023-04-24T08:00:19;9.40;99.90
52058;DHT22;38063;53.210;6.504;2023-04-24T08:02:45;9.40;99.90
52058;DHT22;38063;53.210;6.504;2023-04-24T08:05:11;9.40;99.90
52058;DHT22;38063;53.210;6.504;2023-04-24T08:07:36;9.30;99.90
52058;DHT22;38063;53.210;6.504;2023-04-24T08:10:03;9.30;99.90
52058;DHT22;38063;53.210;6.504;2023-04-24T08:12:29;9.30;99.90
52058;DHT22;38063;53.210;6.504;2023-04-24T08:14:55;9.30;99.90
52058;DHT22;38063;53.210;6.504;2023-04-24T08:17:21;9.30;99.90
52058;DHT22;38063;53.210;6.504;2023-04-24T08:19:46;9.30;99.90
52058;DHT22;38063;53.210;6.504;2023-04-24T08:22:16;9.30;99.90
52058;DHT22;38063;53.210;6.504;2023-04-24T08:24:42;9.20;99.90
52058;DHT22;38063;53.210;6.504;2023-04-24T08:27:09;9.20;99.90
52058;DHT22;38063;53.210;6.504;2023-04-24T08:29:36;9.70;99.90
52058;DHT22;38063;53.210;6.504;2023-04-24T08:32:01;9.20;99.90
52058;DHT22;38063;53.210;6.504;2023-04-24T08:34:27;9.10;99.90
52058;DHT22;38063;53.210;6.504;2023-04-24T08:36:54;9.20;99.90
52058;DHT22;38063;53.210;6.504;2023-04-24T08:39:20;9.10;99.90
52058;DHT22;38063;53.210;6.504;2023-04-24T08:41:48;9.00;99.90
52058;DHT22;38063;53.210;6.504;2023-04-24T08:44:14;9.00;99.90
52058;DHT22;38063;53.210;6.504;2023-04-24T08:46:43;9.00;99.90
52058;DHT22;38063;53.210;6.504;2023-04-24T08:49:12;8.90;99.90
52058;DHT22;38063;53.210;6.504;2023-04-24T08:51:38;8.80;99.90
52058;DHT22;38063;53.210;6.504;2023-04-24T08:54:04;8.80;99.90
52058;DHT22;38063;53.210;6.504;2023-04-24T08:56:33;8.70;99.90
52058;DHT22;38063;53.210;6.504;2023-04-24T08:58:59;8.80;99.90
52058;DHT22;38063;53.210;6.504;2023-04-24T09:01:25;8.70;99.90
52058;DHT22;38063;53.210;6.504;2023-04-24T09:03:53;8.70;99.90
52058;DHT22;38063;53.210;6.504;2023-04-24T09:06:21;8.70;99.90
52058;DHT22;38063;53.210;6.504;2023-04-24T09:08:47;8.70;99.90
52058;DHT22;38063;53.210;6.504;2023-04-24T09:11:14;8.70;99.90
52058;DHT22;38063;53.210;6.504;2023-04-24T09:13:40;8.80;99.90
52058;DHT22;38063;53.210;6.504;2023-04-24T09:16:06;8.70;99.90
52058;DHT22;38063;53.210;6.504;2023-04-24T09:18:32;8.80;99.90
52058;DHT22;38063;53.210;6.504;2023-04-24T09:21:04;8.80;99.90
52058;DHT22;38063;53.210;6.504;2023-04-24T09:23:31;8.80;99.90
52058;DHT22;38063;53.210;6.504;2023-04-24T09:25:58;8.80;99.90
52058;DHT22;38063;53.210;6.504;2023-04-24T09:28:45;8.80;99.90
52058;DHT22;38063;53.210;6.504;2023-04-24T09:31:16;8.80;99.90
52058;DHT22;38063;53.210;6.504;2023-04-24T09:33:57;8.90;99.90
52058;DHT22;38063;53.210;6.504;2023-04-24T09:36:34;9.00;99.90
52058;DHT22;38063;53.210;6.504;2023-04-24T09:39:03;9.00;99.90
52058;DHT22;38063;53.210;6.504;2023-04-24T09:41:29;9.00;99.90
52058;DHT22;38063;53.210;6.504;2023-04-24T09:43:56;9.00;99.90
52058;DHT22;38063;53.210;6.504;2023-04-24T09:46:29;8.90;99.90
52058;DHT22;38063;53.210;6.504;2023-04-24T09:48:56;8.90;99.90
52058;DHT22;38063;53.210;6.504;2023-04-24T09:51:34;8.90;99.90
52058;DHT22;38063;53.210;6.504;2023-04-24T09:54:01;9.40;99.90
52058;DHT22;38063;53.210;6.504;2023-04-24T09:56:26;9.00;99.90
52058;DHT22;38063;53.210;6.504;2023-04-24T09:58:52;9.10;99.90
52058;DHT22;38063;53.210;6.504;2023-04-24T10:01:30;9.10;99.90
52058;DHT22;38063;53.210;6.504;2023-04-24T10:03:56;9.20;99.90
52058;DHT22;38063;53.210;6.504;2023-04-24T10:06:21;9.30;99.90
52058;DHT22;38063;53.210;6.504;2023-04-24T10:08:48;9.40;99.90
52058;DHT22;38063;53.210;6.504;2023-04-24T10:11:16;9.70;99.90
52058;DHT22;38063;53.210;6.504;2023-04-24T10:13:43;9.60;99.90
52058;DHT22;38063;53.210;6.504;2023-04-24T10:16:09;9.80;99.90
52058;DHT22;38063;53.210;6.504;2023-04-24T10:18:35;9.80;99.90
52058;DHT22;38063;53.210;6.504;2023-04-24T10:21:01;9.80;99.90
52058;DHT22;38063;53.210;6.504;2023-04-24T10:23:28;10.20;99.90
52058;DHT22;38063;53.210;6.504;2023-04-24T10:25:55;9.90;99.90
52058;DHT22;38063;53.210;6.504;2023-04-24T10:28:22;9.90;99.90
52058;DHT22;38063;53.210;6.504;2023-04-24T10:30:50;10.10;99.90
52058;DHT22;38063;53.210;6.504;2023-04-24T10:33:16;10.10;99.90
52058;DHT22;38063;53.210;6.504;2023-04-24T10:35:45;10.20;99.90
52058;DHT22;38063;53.210;6.504;2023-04-24T10:38:16;10.30;99.90
52058;DHT22;38063;53.210;6.504;2023-04-24T10:40:43;10.30;99.90
52058;DHT22;38063;53.210;6.504;2023-04-24T10:43:09;10.20;99.90
52058;DHT22;38063;53.210;6.504;2023-04-24T10:45:37;10.60;99.90
52058;DHT22;38063;53.210;6.504;2023-04-24T10:48:05;10.30;99.90
52058;DHT22;38063;53.210;6.504;2023-04-24T10:50:46;10.30;99.90
52058;DHT22;38063;53.210;6.504;2023-04-24T10:53:16;10.30;99.90
52058;DHT22;38063;53.210;6.504;2023-04-24T10:55:50;10.20;99.90
52058;DHT22;38063;53.210;6.504;2023-04-24T10:58:17;10.10;99.90
52058;DHT22;38063;53.210;6.504;2023-04-24T11:00:57;10.40;99.90
52058;DHT22;38063;53.210;6.504;2023-04-24T11:03:28;10.00;99.90
52058;DHT22;38063;53.210;6.504;2023-04-24T11:06:05;9.90;99.90
52058;DHT22;38063;53.210;6.504;2023-04-24T11:08:45;9.90;99.90
52058;DHT22;38063;53.210;6.504;2023-04-24T11:21:55;9.80;99.90
52058;DHT22;38063;53.210;6.504;2023-04-24T11:27:17;10.10;99.90
52058;DHT22;38063;53.210;6.504;2023-04-24T11:29:47;10.10;99.90
52058;DHT22;38063;53.210;6.504;2023-04-24T11:34:56;10.00;99.90
52058;DHT22;38063;53.210;6.504;2023-04-24T11:37:28;10.20;99.90
52058;DHT22;38063;53.210;6.504;2023-04-24T11:39:56;10.10;99.90
52058;DHT22;38063;53.210;6.504;2023-04-24T11:42:22;9.90;99.90
52058;DHT22;38063;53.210;6.504;2023-04-24T11:44:49;10.00;99.90
52058;DHT22;38063;53.210;6.504;2023-04-24T11:47:17;10.00;99.90
52058;DHT22;38063;53.210;6.504;2023-04-24T11:49:42;10.10;99.90
52058;DHT22;38063;53.210;6.504;2023-04-24T11:52:08;10.10;99.90
52058;DHT22;38063;53.210;6.504;2023-04-24T11:54:34;10.60;99.90
52058;DHT22;38063;53.210;6.504;2023-04-24T11:57:04;10.10;99.90
52058;DHT22;38063;53.210;6.504;2023-04-24T11:59:35;10.10;99.90
52058;DHT22;38063;53.210;6.504;2023-04-24T12:02:02;10.10;99.90
52058;DHT22;38063;53.210;6.504;2023-04-24T12:04:41;9.90;99.90
52058;DHT22;38063;53.210;6.504;2023-04-24T12:07:07;9.80;99.90
52058;DHT22;38063;53.210;6.504;2023-04-24T12:09:44;9.70;99.90
52058;DHT22;38063;53.210;6.504;2023-04-24T12:12:12;9.60;99.90
52058;DHT22;38063;53.210;6.504;2023-04-24T12:15:27;9.50;99.90
52058;DHT22;38063;53.210;6.504;2023-04-24T12:17:35;9.50;99.90
52058;DHT22;38063;53.210;6.504;2023-04-24T12:20:07;9.50;99.90
52058;DHT22;38063;53.210;6.504;2023-04-24T12:22:52;9.60;99.90
52058;DHT22;38063;53.210;6.504;2023-04-24T12:25:27;9.70;99.90
52058;DHT22;38063;53.210;6.504;2023-04-24T12:30:28;10.00;99.90
52058;DHT22;38063;53.210;6.504;2023-04-24T12:32:57;10.00;99.90
52058;DHT22;38063;53.210;6.504;2023-04-24T12:35:25;10.10;99.90
52058;DHT22;38063;53.210;6.504;2023-04-24T12:37:51;10.30;99.90
52058;DHT22;38063;53.210;6.504;2023-04-24T12:40:18;10.20;99.90
52058;DHT22;38063;53.210;6.504;2023-04-24T12:42:46;10.20;99.90
52058;DHT22;38063;53.210;6.504;2023-04-24T12:45:12;10.20;99.90
52058;DHT22;38063;53.210;6.504;2023-04-24T12:47:40;10.10;99.90
52058;DHT22;38063;53.210;6.504;2023-04-24T12:50:14;10.10;99.90
52058;DHT22;38063;53.210;6.504;2023-04-24T12:52:41;10.10;99.90
52058;DHT22;38063;53.210;6.504;2023-04-24T12:55:07;10.10;99.90
52058;DHT22;38063;53.210;6.504;2023-04-24T12:57:36;10.00;99.90
52058;DHT22;38063;53.210;6.504;2023-04-24T13:00:06;9.90;99.90
52058;DHT22;38063;53.210;6.504;2023-04-24T13:02:33;9.80;99.90
52058;DHT22;38063;53.210;6.504;2023-04-24T13:04:59;9.70;99.90
52058;DHT22;38063;53.210;6.504;2023-04-24T13:07:26;9.50;99.90
52058;DHT22;38063;53.210;6.504;2023-04-24T13:09:53;9.50;99.90
52058;DHT22;38063;53.210;6.504;2023-04-24T13:12:19;9.40;99.90
52058;DHT22;38063;53.210;6.504;2023-04-24T13:14:46;9.40;99.90
52058;DHT22;38063;53.210;6.504;2023-04-24T13:17:11;9.40;99.90
52058;DHT22;38063;53.210;6.504;2023-04-24T13:19:42;9.30;99.90
52058;DHT22;38063;53.210;6.504;2023-04-24T13:22:10;9.30;99.90
52058;DHT22;38063;53.210;6.504;2023-04-24T13:24:37;9.40;99.90
52058;DHT22;38063;53.210;6.504;2023-04-24T13:27:04;9.30;99.90
52058;DHT22;38063;53.210;6.504;2023-04-24T13:29:29;9.40;99.90
52058;DHT22;38063;53.210;6.504;2023-04-24T13:31:55;9.40;99.90
52058;DHT22;38063;53.210;6.504;2023-04-24T13:34:24;9.50;99.90
52058;DHT22;38063;53.210;6.504;2023-04-24T13:36:55;9.50;99.90
52058;DHT22;38063;53.210;6.504;2023-04-24T13:39:22;9.50;99.90
52058;DHT22;38063;53.210;6.504;2023-04-24T13:41:47;9.60;99.90
52058;DHT22;38063;53.210;6.504;2023-04-24T13:44:14;9.60;99.90
52058;DHT22;38063;53.210;6.504;2023-04-24T13:46:41;9.60;99.90
52058;DHT22;38063;53.210;6.504;2023-04-24T13:49:07;9.70;99.90
52058;DHT22;38063;53.210;6.504;2023-04-24T13:51:33;9.70;99.90
52058;DHT22;38063;53.210;6.504;2023-04-24T13:53:59;9.60;99.90
52058;DHT22;38063;53.210;6.504;2023-04-24T13:56:26;9.60;99.90
52058;DHT22;38063;53.210;6.504;2023-04-24T13:58:52;9.60;99.90
52058;DHT22;38063;53.210;6.504;2023-04-24T14:01:19;9.50;99.90
52058;DHT22;38063;53.210;6.504;2023-04-24T14:03:46;9.40;99.90
52058;DHT22;38063;53.210;6.504;2023-04-24T14:06:11;9.40;99.90
52058;DHT22;38063;53.210;6.504;2023-04-24T14:08:37;9.20;99.90
52058;DHT22;38063;53.210;6.504;2023-04-24T14:11:03;9.10;99.90
52058;DHT22;38063;53.210;6.504;2023-04-24T14:13:29;9.10;99.90
52058;DHT22;38063;53.210;6.504;2023-04-24T14:15:54;9.10;99.90
52058;DHT22;38063;53.210;6.504;2023-04-24T14:18:20;9.10;99.90
52058;DHT22;38063;53.210;6.504;2023-04-24T14:20:46;9.00;99.90
52058;DHT22;38063;53.210;6.504;2023-04-24T14:23:12;9.00;99.90
52058;DHT22;38063;53.210;6.504;2023-04-24T14:25:38;9.00;99.90
52058;DHT22;38063;53.210;6.504;2023-04-24T14:28:03;8.90;99.90
52058;DHT22;38063;53.210;6.504;2023-04-24T14:30:30;9.00;99.90
52058;DHT22;38063;53.210;6.504;2023-04-24T14:32:56;9.00;99.90
52058;DHT22;38063;53.210;6.504;2023-04-24T14:35:22;9.00;99.90
52058;DHT22;38063;53.210;6.504;2023-04-24T14:37:47;9.00;99.90
52058;DHT22;38063;53.210;6.504;2023-04-24T14:40:14;9.10;99.90
52058;DHT22;38063;53.210;6.504;2023-04-24T14:42:40;9.20;99.90
52058;DHT22;38063;53.210;6.504;2023-04-24T14:45:06;9.20;99.90
52058;DHT22;38063;53.210;6.504;2023-04-24T14:47:33;9.20;99.90
52058;DHT22;38063;53.210;6.504;2023-04-24T14:49:58;9.30;99.90
52058;DHT22;38063;53.210;6.504;2023-04-24T14:52:24;9.30;99.90
52058;DHT22;38063;53.210;6.504;2023-04-24T14:54:50;9.30;99.90
52058;DHT22;38063;53.210;6.504;2023-04-24T14:57:16;9.30;99.90
52058;DHT22;38063;53.210;6.504;2023-04-24T14:59:42;9.20;99.90
52058;DHT22;38063;53.210;6.504;2023-04-24T15:02:07;9.20;99.90
52058;DHT22;38063;53.210;6.504;2023-04-24T15:04:33;9.10;99.90
52058;DHT22;38063;53.210;6.504;2023-04-24T15:06:58;9.10;99.90
52058;DHT22;38063;53.210;6.504;2023-04-24T15:09:24;9.00;99.90
52058;DHT22;38063;53.210;6.504;2023-04-24T15:11:51;9.00;99.90
52058;DHT22;38063;53.210;6.504;2023-04-24T15:14:17;9.00;99.90
52058;DHT22;38063;53.210;6.504;2023-04-24T15:16:43;9.10;99.90
52058;DHT22;38063;53.210;6.504;2023-04-24T15:19:09;9.00;99.90
52058;DHT22;38063;53.210;6.504;2023-04-24T15:21:36;9.50;99.90
52058;DHT22;38063;53.210;6.504;2023-04-24T15:24:02;9.00;99.90
52058;DHT22;38063;53.210;6.504;2023-04-24T15:26:28;9.00;99.90
52058;DHT22;38063;53.210;6.504;2023-04-24T15:28:53;9.00;99.90
52058;DHT22;38063;53.210;6.504;2023-04-24T15:31:19;8.90;99.90
52058;DHT22;38063;53.210;6.504;2023-04-24T15:33:45;8.90;99.90
52058;DHT22;38063;53.210;6.504;2023-04-24T15:36:11;9.40;99.90
52058;DHT22;38063;53.210;6.504;2023-04-24T15:38:37;9.00;99.90
52058;DHT22;38063;53.210;6.504;2023-04-24T15:41:03;9.20;99.90
52058;DHT22;38063;53.210;6.504;2023-04-24T15:43:28;9.10;99.90
52058;DHT22;38063;53.210;6.504;2023-04-24T15:45:56;9.30;99.90
52058;DHT22;38063;53.210;6.504;2023-04-24T15:48:22;9.00;99.90
52058;DHT22;38063;53.210;6.504;2023-04-24T15:50:48;8.90;99.90
52058;DHT22;38063;53.210;6.504;2023-04-24T15:53:14;8.90;99.90
52058;DHT22;38063;53.210;6.504;2023-04-24T15:55:47;8.80;99.90